sensor_id;sensor_type;location;lat;lon;timestamp;P1;durP1;ratioP1;P2;durP2;ratioP2
51006;SDS011;37034;47.886;-3.904;2023-12-20T00:00:47;13.37;;;1.47;;
51006;SDS011;37034;47.886;-3.904;2023-12-20T00:03:12;16.00;;;1.47;;
51006;SDS011;37034;47.886;-3.904;2023-12-20T00:05:38;17.57;;;2.13;;
51006;SDS011;37034;47.886;-3.904;2023-12-20T00:08:06;13.15;;;1.98;;
51006;SDS011;37034;47.886;-3.904;2023-12-20T00:10:31;11.13;;;1.60;;
51006;SDS011;37034;47.886;-3.904;2023-12-20T00:12:57;13.43;;;2.17;;
51006;SDS011;37034;47.886;-3.904;2023-12-20T00:15:22;13.00;;;1.47;;
51006;SDS011;37034;47.886;-3.904;2023-12-20T00:17:48;10.17;;;1.53;;
51006;SDS011;37034;47.886;-3.904;2023-12-20T00:20:14;11.07;;;1.57;;
51006;SDS011;37034;47.886;-3.904;2023-12-20T00:22:39;4.97;;;1.00;;
51006;SDS011;37034;47.886;-3.904;2023-12-20T00:25:05;11.53;;;1.70;;
51006;SDS011;37034;47.886;-3.904;2023-12-20T00:27:32;13.25;;;1.73;;
51006;SDS011;37034;47.886;-3.904;2023-12-20T00:29:58;11.07;;;1.63;;
51006;SDS011;37034;47.886;-3.904;2023-12-20T00:32:23;13.73;;;1.20;;
51006;SDS011;37034;47.886;-3.904;2023-12-20T00:34:49;9.23;;;1.70;;
51006;SDS011;37034;47.886;-3.904;2023-12-20T00:37:15;8.45;;;1.00;;
51006;SDS011;37034;47.886;-3.904;2023-12-20T00:39:41;14.43;;;1.80;;
51006;SDS011;37034;47.886;-3.904;2023-12-20T00:42:07;12.27;;;1.42;;
51006;SDS011;37034;47.886;-3.904;2023-12-20T00:44:33;10.90;;;1.47;;
51006;SDS011;37034;47.886;-3.904;2023-12-20T00:46:58;7.67;;;1.20;;
51006;SDS011;37034;47.886;-3.904;2023-12-20T00:49:24;18.70;;;1.97;;
51006;SDS011;37034;47.886;-3.904;2023-12-20T00:51:50;11.07;;;1.53;;
51006;SDS011;37034;47.886;-3.904;2023-12-20T00:54:17;11.38;;;1.15;;
51006;SDS011;37034;47.886;-3.904;2023-12-20T00:56:43;10.93;;;1.33;;
51006;SDS011;37034;47.886;-3.904;2023-12-20T00:59:09;10.80;;;1.50;;
51006;SDS011;37034;47.886;-3.904;2023-12-20T01:01:34;15.77;;;1.60;;
51006;SDS011;37034;47.886;-3.904;2023-12-20T01:04:00;9.13;;;1.50;;
51006;SDS011;37034;47.886;-3.904;2023-12-20T01:06:26;8.70;;;1.77;;
51006;SDS011;37034;47.886;-3.904;2023-12-20T01:08:51;9.67;;;1.60;;
51006;SDS011;37034;47.886;-3.904;2023-12-20T01:11:17;15.40;;;1.90;;
51006;SDS011;37034;47.886;-3.904;2023-12-20T01:13:42;13.73;;;2.00;;
51006;SDS011;37034;47.886;-3.904;2023-12-20T01:16:11;11.33;;;1.50;;
51006;SDS011;37034;47.886;-3.904;2023-12-20T01:18:37;14.15;;;2.38;;
51006;SDS011;37034;47.886;-3.904;2023-12-20T01:23:30;8.27;;;1.40;;
51006;SDS011;37034;47.886;-3.904;2023-12-20T01:25:56;15.68;;;1.92;;
51006;SDS011;37034;47.886;-3.904;2023-12-20T01:28:21;15.93;;;1.67;;
51006;SDS011;37034;47.886;-3.904;2023-12-20T01:30:47;15.93;;;1.63;;
51006;SDS011;37034;47.886;-3.904;2023-12-20T01:33:13;18.20;;;2.27;;
51006;SDS011;37034;47.886;-3.904;2023-12-20T01:35:38;14.10;;;1.73;;
51006;SDS011;37034;47.886;-3.904;2023-12-20T01:38:04;9.27;;;1.40;;
51006;SDS011;37034;47.886;-3.904;2023-12-20T01:40:30;11.93;;;2.40;;
51006;SDS011;37034;47.886;-3.904;2023-12-20T01:43:02;12.23;;;2.00;;
51006;SDS011;37034;47.886;-3.904;2023-12-20T01:45:33;11.30;;;1.38;;
51006;SDS011;37034;47.886;-3.904;2023-12-20T01:47:59;16.10;;;1.90;;
51006;SDS011;37034;47.886;-3.904;2023-12-20T01:50:26;17.00;;;1.80;;
51006;SDS011;37034;47.886;-3.904;2023-12-20T01:52:52;10.48;;;1.40;;
51006;SDS011;37034;47.886;-3.904;2023-12-20T01:55:25;7.55;;;1.40;;
51006;SDS011;37034;47.886;-3.904;2023-12-20T01:57:53;8.40;;;1.60;;
51006;SDS011;37034;47.886;-3.904;2023-12-20T02:00:19;10.98;;;1.20;;
51006;SDS011;37034;47.886;-3.904;2023-12-20T02:02:48;7.63;;;1.30;;
51006;SDS011;37034;47.886;-3.904;2023-12-20T02:05:15;11.80;;;1.60;;
51006;SDS011;37034;47.886;-3.904;2023-12-20T02:07:42;12.45;;;1.55;;
51006;SDS011;37034;47.886;-3.904;2023-12-20T02:10:07;10.50;;;1.40;;
51006;SDS011;37034;47.886;-3.904;2023-12-20T02:12:33;16.85;;;1.80;;
51006;SDS011;37034;47.886;-3.904;2023-12-20T02:14:59;15.67;;;2.47;;
51006;SDS011;37034;47.886;-3.904;2023-12-20T02:17:25;19.23;;;2.57;;
51006;SDS011;37034;47.886;-3.904;2023-12-20T02:19:51;15.18;;;2.47;;
51006;SDS011;37034;47.886;-3.904;2023-12-20T02:22:16;17.50;;;1.80;;
51006;SDS011;37034;47.886;-3.904;2023-12-20T02:24:42;14.23;;;2.50;;
51006;SDS011;37034;47.886;-3.904;2023-12-20T02:27:08;18.90;;;3.33;;
51006;SDS011;37034;47.886;-3.904;2023-12-20T02:29:34;8.87;;;1.87;;
51006;SDS011;37034;47.886;-3.904;2023-12-20T02:34:26;25.60;;;3.28;;
51006;SDS011;37034;47.886;-3.904;2023-12-20T02:36:52;14.73;;;2.13;;
51006;SDS011;37034;47.886;-3.904;2023-12-20T02:39:17;16.87;;;3.30;;
51006;SDS011;37034;47.886;-3.904;2023-12-20T02:41:44;9.60;;;1.92;;
51006;SDS011;37034;47.886;-3.904;2023-12-20T02:44:09;8.23;;;1.23;;
51006;SDS011;37034;47.886;-3.904;2023-12-20T02:46:35;8.80;;;1.50;;
51006;SDS011;37034;47.886;-3.904;2023-12-20T02:49:01;8.53;;;1.23;;
51006;SDS011;37034;47.886;-3.904;2023-12-20T02:51:26;11.77;;;1.60;;
51006;SDS011;37034;47.886;-3.904;2023-12-20T02:53:52;14.17;;;1.50;;
51006;SDS011;37034;47.886;-3.904;2023-12-20T02:56:18;12.10;;;1.77;;
51006;SDS011;37034;47.886;-3.904;2023-12-20T02:58:43;14.23;;;1.93;;
51006;SDS011;37034;47.886;-3.904;2023-12-20T03:01:09;13.43;;;1.67;;
51006;SDS011;37034;47.886;-3.904;2023-12-20T03:03:35;15.37;;;1.87;;
51006;SDS011;37034;47.886;-3.904;2023-12-20T03:06:00;16.70;;;2.17;;
51006;SDS011;37034;47.886;-3.904;2023-12-20T03:08:26;14.23;;;1.47;;
51006;SDS011;37034;47.886;-3.904;2023-12-20T03:10:52;6.83;;;1.07;;
51006;SDS011;37034;47.886;-3.904;2023-12-20T03:13:18;10.15;;;1.40;;
51006;SDS011;37034;47.886;-3.904;2023-12-20T03:15:44;9.60;;;1.30;;
51006;SDS011;37034;47.886;-3.904;2023-12-20T03:18:10;17.08;;;1.95;;
51006;SDS011;37034;47.886;-3.904;2023-12-20T03:20:36;12.97;;;1.23;;
51006;SDS011;37034;47.886;-3.904;2023-12-20T03:23:02;7.63;;;0.90;;
51006;SDS011;37034;47.886;-3.904;2023-12-20T03:25:28;11.63;;;1.63;;
51006;SDS011;37034;47.886;-3.904;2023-12-20T03:27:54;11.30;;;1.48;;
51006;SDS011;37034;47.886;-3.904;2023-12-20T03:30:20;11.33;;;1.70;;
51006;SDS011;37034;47.886;-3.904;2023-12-20T03:32:46;9.83;;;1.93;;
51006;SDS011;37034;47.886;-3.904;2023-12-20T03:35:12;11.40;;;1.45;;
51006;SDS011;37034;47.886;-3.904;2023-12-20T03:37:38;9.32;;;1.30;;
51006;SDS011;37034;47.886;-3.904;2023-12-20T03:40:04;16.35;;;1.90;;
51006;SDS011;37034;47.886;-3.904;2023-12-20T03:42:30;15.30;;;1.65;;
51006;SDS011;37034;47.886;-3.904;2023-12-20T03:44:56;15.37;;;1.80;;
51006;SDS011;37034;47.886;-3.904;2023-12-20T03:47:21;13.27;;;1.57;;
51006;SDS011;37034;47.886;-3.904;2023-12-20T03:49:47;12.83;;;1.73;;
51006;SDS011;37034;47.886;-3.904;2023-12-20T03:52:13;11.93;;;1.90;;
51006;SDS011;37034;47.886;-3.904;2023-12-20T03:54:38;13.17;;;1.50;;
51006;SDS011;37034;47.886;-3.904;2023-12-20T03:57:04;8.63;;;1.95;;
51006;SDS011;37034;47.886;-3.904;2023-12-20T03:59:34;11.90;;;1.50;;
51006;SDS011;37034;47.886;-3.904;2023-12-20T04:02:02;10.63;;;1.23;;
51006;SDS011;37034;47.886;-3.904;2023-12-20T04:04:28;15.43;;;1.67;;
51006;SDS011;37034;47.886;-3.904;2023-12-20T04:06:53;15.90;;;1.43;;
51006;SDS011;37034;47.886;-3.904;2023-12-20T04:09:19;10.83;;;1.23;;
51006;SDS011;37034;47.886;-3.904;2023-12-20T04:11:45;15.03;;;1.77;;
51006;SDS011;37034;47.886;-3.904;2023-12-20T04:14:10;11.67;;;1.80;;
51006;SDS011;37034;47.886;-3.904;2023-12-20T04:16:36;17.70;;;1.87;;
51006;SDS011;37034;47.886;-3.904;2023-12-20T04:19:02;16.27;;;1.98;;
51006;SDS011;37034;47.886;-3.904;2023-12-20T04:21:27;9.90;;;1.70;;
51006;SDS011;37034;47.886;-3.904;2023-12-20T04:23:53;20.57;;;2.20;;
51006;SDS011;37034;47.886;-3.904;2023-12-20T04:26:19;20.60;;;2.60;;
51006;SDS011;37034;47.886;-3.904;2023-12-20T04:28:44;21.40;;;2.70;;
51006;SDS011;37034;47.886;-3.904;2023-12-20T04:31:10;11.17;;;1.57;;
51006;SDS011;37034;47.886;-3.904;2023-12-20T04:33:36;12.73;;;1.70;;
51006;SDS011;37034;47.886;-3.904;2023-12-20T04:36:01;16.97;;;1.80;;
51006;SDS011;37034;47.886;-3.904;2023-12-20T04:38:27;16.27;;;2.20;;
51006;SDS011;37034;47.886;-3.904;2023-12-20T04:40:53;17.73;;;1.97;;
51006;SDS011;37034;47.886;-3.904;2023-12-20T04:43:18;22.23;;;2.23;;
51006;SDS011;37034;47.886;-3.904;2023-12-20T04:45:44;25.30;;;3.50;;
51006;SDS011;37034;47.886;-3.904;2023-12-20T04:48:10;18.50;;;2.90;;
51006;SDS011;37034;47.886;-3.904;2023-12-20T04:50:35;27.87;;;3.47;;
51006;SDS011;37034;47.886;-3.904;2023-12-20T04:53:01;12.30;;;1.93;;
51006;SDS011;37034;47.886;-3.904;2023-12-20T04:55:26;22.73;;;2.30;;
51006;SDS011;37034;47.886;-3.904;2023-12-20T04:57:52;23.33;;;3.43;;
51006;SDS011;37034;47.886;-3.904;2023-12-20T05:00:18;18.93;;;2.57;;
51006;SDS011;37034;47.886;-3.904;2023-12-20T05:02:43;27.63;;;2.90;;
51006;SDS011;37034;47.886;-3.904;2023-12-20T05:05:09;20.97;;;2.43;;
51006;SDS011;37034;47.886;-3.904;2023-12-20T05:07:35;28.77;;;3.47;;
51006;SDS011;37034;47.886;-3.904;2023-12-20T05:10:01;28.77;;;2.93;;
51006;SDS011;37034;47.886;-3.904;2023-12-20T05:12:29;27.20;;;3.30;;
51006;SDS011;37034;47.886;-3.904;2023-12-20T05:14:55;19.65;;;3.20;;
51006;SDS011;37034;47.886;-3.904;2023-12-20T05:17:20;30.30;;;2.80;;
51006;SDS011;37034;47.886;-3.904;2023-12-20T05:19:46;28.53;;;3.13;;
51006;SDS011;37034;47.886;-3.904;2023-12-20T05:22:12;25.13;;;3.47;;
51006;SDS011;37034;47.886;-3.904;2023-12-20T05:24:37;23.93;;;2.90;;
51006;SDS011;37034;47.886;-3.904;2023-12-20T05:27:03;23.80;;;2.43;;
51006;SDS011;37034;47.886;-3.904;2023-12-20T05:29:29;19.25;;;2.58;;
51006;SDS011;37034;47.886;-3.904;2023-12-20T05:31:55;43.93;;;4.83;;
51006;SDS011;37034;47.886;-3.904;2023-12-20T05:34:20;24.90;;;3.83;;
51006;SDS011;37034;47.886;-3.904;2023-12-20T05:36:46;24.53;;;3.33;;
51006;SDS011;37034;47.886;-3.904;2023-12-20T05:39:11;31.23;;;3.77;;
51006;SDS011;37034;47.886;-3.904;2023-12-20T05:41:37;27.13;;;3.07;;
51006;SDS011;37034;47.886;-3.904;2023-12-20T05:44:03;20.23;;;2.67;;
51006;SDS011;37034;47.886;-3.904;2023-12-20T05:46:28;22.90;;;3.87;;
51006;SDS011;37034;47.886;-3.904;2023-12-20T05:48:54;23.17;;;2.83;;
51006;SDS011;37034;47.886;-3.904;2023-12-20T05:51:20;27.57;;;3.23;;
51006;SDS011;37034;47.886;-3.904;2023-12-20T05:53:45;17.23;;;2.33;;
51006;SDS011;37034;47.886;-3.904;2023-12-20T05:56:11;28.60;;;4.00;;
51006;SDS011;37034;47.886;-3.904;2023-12-20T05:58:38;23.73;;;2.97;;
51006;SDS011;37034;47.886;-3.904;2023-12-20T06:01:04;37.90;;;4.15;;
51006;SDS011;37034;47.886;-3.904;2023-12-20T06:03:30;14.27;;;2.47;;
51006;SDS011;37034;47.886;-3.904;2023-12-20T06:05:56;30.60;;;4.15;;
51006;SDS011;37034;47.886;-3.904;2023-12-20T06:08:22;36.43;;;4.07;;
51006;SDS011;37034;47.886;-3.904;2023-12-20T06:10:48;23.27;;;3.40;;
51006;SDS011;37034;47.886;-3.904;2023-12-20T06:13:14;39.13;;;3.78;;
51006;SDS011;37034;47.886;-3.904;2023-12-20T06:15:39;21.83;;;3.23;;
51006;SDS011;37034;47.886;-3.904;2023-12-20T06:18:05;31.47;;;4.73;;
51006;SDS011;37034;47.886;-3.904;2023-12-20T06:20:31;25.95;;;3.03;;
51006;SDS011;37034;47.886;-3.904;2023-12-20T06:22:57;24.80;;;3.25;;
51006;SDS011;37034;47.886;-3.904;2023-12-20T06:25:23;30.33;;;3.40;;
51006;SDS011;37034;47.886;-3.904;2023-12-20T06:27:49;30.03;;;3.53;;
51006;SDS011;37034;47.886;-3.904;2023-12-20T06:30:15;31.97;;;3.93;;
51006;SDS011;37034;47.886;-3.904;2023-12-20T06:32:41;30.83;;;4.22;;
51006;SDS011;37034;47.886;-3.904;2023-12-20T06:35:07;22.42;;;3.65;;
51006;SDS011;37034;47.886;-3.904;2023-12-20T06:37:36;28.38;;;3.58;;
51006;SDS011;37034;47.886;-3.904;2023-12-20T06:40:01;25.93;;;4.00;;
51006;SDS011;37034;47.886;-3.904;2023-12-20T06:42:27;27.97;;;4.60;;
51006;SDS011;37034;47.886;-3.904;2023-12-20T06:44:53;25.70;;;3.43;;
51006;SDS011;37034;47.886;-3.904;2023-12-20T06:47:18;24.23;;;3.80;;
51006;SDS011;37034;47.886;-3.904;2023-12-20T06:49:44;20.80;;;3.10;;
51006;SDS011;37034;47.886;-3.904;2023-12-20T06:52:09;26.67;;;3.70;;
51006;SDS011;37034;47.886;-3.904;2023-12-20T06:54:35;25.60;;;3.57;;
51006;SDS011;37034;47.886;-3.904;2023-12-20T06:57:01;19.77;;;4.30;;
51006;SDS011;37034;47.886;-3.904;2023-12-20T06:59:28;27.55;;;4.18;;
51006;SDS011;37034;47.886;-3.904;2023-12-20T07:01:54;21.48;;;3.55;;
51006;SDS011;37034;47.886;-3.904;2023-12-20T07:04:20;23.05;;;3.05;;
51006;SDS011;37034;47.886;-3.904;2023-12-20T07:06:47;21.95;;;3.22;;
51006;SDS011;37034;47.886;-3.904;2023-12-20T07:09:15;19.92;;;3.13;;
51006;SDS011;37034;47.886;-3.904;2023-12-20T07:11:41;19.97;;;3.90;;
51006;SDS011;37034;47.886;-3.904;2023-12-20T07:14:07;26.48;;;3.00;;
51006;SDS011;37034;47.886;-3.904;2023-12-20T07:16:32;24.33;;;3.90;;
51006;SDS011;37034;47.886;-3.904;2023-12-20T07:18:58;24.47;;;3.70;;
51006;SDS011;37034;47.886;-3.904;2023-12-20T07:21:23;24.93;;;3.73;;
51006;SDS011;37034;47.886;-3.904;2023-12-20T07:23:49;30.63;;;4.83;;
51006;SDS011;37034;47.886;-3.904;2023-12-20T07:26:15;23.37;;;3.83;;
51006;SDS011;37034;47.886;-3.904;2023-12-20T07:28:40;21.52;;;3.13;;
51006;SDS011;37034;47.886;-3.904;2023-12-20T07:31:06;40.07;;;4.30;;
51006;SDS011;37034;47.886;-3.904;2023-12-20T07:33:32;24.10;;;4.73;;
51006;SDS011;37034;47.886;-3.904;2023-12-20T07:35:59;21.83;;;4.73;;
51006;SDS011;37034;47.886;-3.904;2023-12-20T07:38:24;34.65;;;5.53;;
51006;SDS011;37034;47.886;-3.904;2023-12-20T07:40:50;24.23;;;4.37;;
51006;SDS011;37034;47.886;-3.904;2023-12-20T07:43:16;28.10;;;4.97;;
51006;SDS011;37034;47.886;-3.904;2023-12-20T07:45:41;22.53;;;4.33;;
51006;SDS011;37034;47.886;-3.904;2023-12-20T07:48:07;33.47;;;5.60;;
51006;SDS011;37034;47.886;-3.904;2023-12-20T07:50:33;32.92;;;5.93;;
51006;SDS011;37034;47.886;-3.904;2023-12-20T07:52:59;36.27;;;5.33;;
51006;SDS011;37034;47.886;-3.904;2023-12-20T07:57:51;27.70;;;4.43;;
51006;SDS011;37034;47.886;-3.904;2023-12-20T08:00:17;24.77;;;4.22;;
51006;SDS011;37034;47.886;-3.904;2023-12-20T08:02:43;24.60;;;3.73;;
51006;SDS011;37034;47.886;-3.904;2023-12-20T08:05:09;27.60;;;3.37;;
51006;SDS011;37034;47.886;-3.904;2023-12-20T08:07:34;30.93;;;4.57;;
51006;SDS011;37034;47.886;-3.904;2023-12-20T08:10:00;21.13;;;3.77;;
51006;SDS011;37034;47.886;-3.904;2023-12-20T08:12:26;26.27;;;4.00;;
51006;SDS011;37034;47.886;-3.904;2023-12-20T08:14:52;16.55;;;2.90;;
51006;SDS011;37034;47.886;-3.904;2023-12-20T08:17:19;21.65;;;3.53;;
51006;SDS011;37034;47.886;-3.904;2023-12-20T08:19:44;32.87;;;4.63;;
51006;SDS011;37034;47.886;-3.904;2023-12-20T08:22:10;26.87;;;3.13;;
51006;SDS011;37034;47.886;-3.904;2023-12-20T08:24:36;17.95;;;2.72;;
51006;SDS011;37034;47.886;-3.904;2023-12-20T08:27:03;24.02;;;2.83;;
51006;SDS011;37034;47.886;-3.904;2023-12-20T08:29:29;19.92;;;3.17;;
51006;SDS011;37034;47.886;-3.904;2023-12-20T08:31:55;27.30;;;3.67;;
51006;SDS011;37034;47.886;-3.904;2023-12-20T08:34:20;23.00;;;4.68;;
51006;SDS011;37034;47.886;-3.904;2023-12-20T08:36:46;19.37;;;2.93;;
51006;SDS011;37034;47.886;-3.904;2023-12-20T08:39:12;22.40;;;3.10;;
51006;SDS011;37034;47.886;-3.904;2023-12-20T08:41:38;22.60;;;3.27;;
51006;SDS011;37034;47.886;-3.904;2023-12-20T08:44:03;24.93;;;3.50;;
51006;SDS011;37034;47.886;-3.904;2023-12-20T08:46:29;26.37;;;3.73;;
51006;SDS011;37034;47.886;-3.904;2023-12-20T08:48:55;24.57;;;4.20;;
51006;SDS011;37034;47.886;-3.904;2023-12-20T08:51:20;20.33;;;4.33;;
51006;SDS011;37034;47.886;-3.904;2023-12-20T08:53:47;32.05;;;5.30;;
51006;SDS011;37034;47.886;-3.904;2023-12-20T08:56:14;36.22;;;6.22;;
51006;SDS011;37034;47.886;-3.904;2023-12-20T08:58:40;26.70;;;4.07;;
51006;SDS011;37034;47.886;-3.904;2023-12-20T09:01:06;29.88;;;3.60;;
51006;SDS011;37034;47.886;-3.904;2023-12-20T09:03:32;20.20;;;3.40;;
51006;SDS011;37034;47.886;-3.904;2023-12-20T09:05:58;17.87;;;3.17;;
51006;SDS011;37034;47.886;-3.904;2023-12-20T09:08:23;19.97;;;2.60;;
51006;SDS011;37034;47.886;-3.904;2023-12-20T09:10:49;31.97;;;3.73;;
51006;SDS011;37034;47.886;-3.904;2023-12-20T09:13:15;25.30;;;3.43;;
51006;SDS011;37034;47.886;-3.904;2023-12-20T09:15:41;26.00;;;3.20;;
51006;SDS011;37034;47.886;-3.904;2023-12-20T09:18:06;24.23;;;3.47;;
51006;SDS011;37034;47.886;-3.904;2023-12-20T09:20:32;25.37;;;3.20;;
51006;SDS011;37034;47.886;-3.904;2023-12-20T09:22:59;30.77;;;4.93;;
51006;SDS011;37034;47.886;-3.904;2023-12-20T09:25:24;24.67;;;5.10;;
51006;SDS011;37034;47.886;-3.904;2023-12-20T09:27:51;21.58;;;3.88;;
51006;SDS011;37034;47.886;-3.904;2023-12-20T09:30:17;20.50;;;3.20;;
51006;SDS011;37034;47.886;-3.904;2023-12-20T09:32:43;19.33;;;3.63;;
51006;SDS011;37034;47.886;-3.904;2023-12-20T09:35:10;21.83;;;3.63;;
51006;SDS011;37034;47.886;-3.904;2023-12-20T09:37:35;20.27;;;3.37;;
51006;SDS011;37034;47.886;-3.904;2023-12-20T09:40:01;22.37;;;3.80;;
51006;SDS011;37034;47.886;-3.904;2023-12-20T09:42:37;25.50;;;3.92;;
51006;SDS011;37034;47.886;-3.904;2023-12-20T09:45:23;20.05;;;3.00;;
51006;SDS011;37034;47.886;-3.904;2023-12-20T09:47:50;25.20;;;3.75;;
51006;SDS011;37034;47.886;-3.904;2023-12-20T09:50:18;19.27;;;2.67;;
51006;SDS011;37034;47.886;-3.904;2023-12-20T09:52:45;22.00;;;2.53;;
51006;SDS011;37034;47.886;-3.904;2023-12-20T09:55:19;24.17;;;3.17;;
51006;SDS011;37034;47.886;-3.904;2023-12-20T09:57:46;23.20;;;3.17;;
51006;SDS011;37034;47.886;-3.904;2023-12-20T10:00:12;21.92;;;2.75;;
51006;SDS011;37034;47.886;-3.904;2023-12-20T10:02:41;21.20;;;3.42;;
51006;SDS011;37034;47.886;-3.904;2023-12-20T10:05:15;19.52;;;3.28;;
51006;SDS011;37034;47.886;-3.904;2023-12-20T10:07:44;20.42;;;3.50;;
51006;SDS011;37034;47.886;-3.904;2023-12-20T10:12:37;23.77;;;3.90;;
51006;SDS011;37034;47.886;-3.904;2023-12-20T10:15:03;19.88;;;2.67;;
51006;SDS011;37034;47.886;-3.904;2023-12-20T10:19:56;26.55;;;3.20;;
51006;SDS011;37034;47.886;-3.904;2023-12-20T10:22:23;17.02;;;2.40;;
51006;SDS011;37034;47.886;-3.904;2023-12-20T10:24:49;23.10;;;3.97;;
51006;SDS011;37034;47.886;-3.904;2023-12-20T10:27:15;21.58;;;3.13;;
51006;SDS011;37034;47.886;-3.904;2023-12-20T10:29:44;25.23;;;2.97;;
51006;SDS011;37034;47.886;-3.904;2023-12-20T10:32:23;25.15;;;4.10;;
51006;SDS011;37034;47.886;-3.904;2023-12-20T10:34:51;29.08;;;3.78;;
51006;SDS011;37034;47.886;-3.904;2023-12-20T10:37:17;20.92;;;2.85;;
51006;SDS011;37034;47.886;-3.904;2023-12-20T10:39:43;21.88;;;3.40;;
51006;SDS011;37034;47.886;-3.904;2023-12-20T10:42:12;19.80;;;2.60;;
51006;SDS011;37034;47.886;-3.904;2023-12-20T10:44:38;24.60;;;3.50;;
51006;SDS011;37034;47.886;-3.904;2023-12-20T10:47:04;27.58;;;3.25;;
51006;SDS011;37034;47.886;-3.904;2023-12-20T10:49:31;24.70;;;4.32;;
51006;SDS011;37034;47.886;-3.904;2023-12-20T10:52:01;17.65;;;2.78;;
51006;SDS011;37034;47.886;-3.904;2023-12-20T10:54:28;22.38;;;3.90;;
51006;SDS011;37034;47.886;-3.904;2023-12-20T10:56:54;15.60;;;2.70;;
51006;SDS011;37034;47.886;-3.904;2023-12-20T10:59:23;22.77;;;3.50;;
51006;SDS011;37034;47.886;-3.904;2023-12-20T11:01:50;13.32;;;2.35;;
51006;SDS011;37034;47.886;-3.904;2023-12-20T11:04:22;24.17;;;2.67;;
51006;SDS011;37034;47.886;-3.904;2023-12-20T11:06:59;14.93;;;2.78;;
51006;SDS011;37034;47.886;-3.904;2023-12-20T11:09:58;34.92;;;4.07;;
51006;SDS011;37034;47.886;-3.904;2023-12-20T11:13:12;15.93;;;2.92;;
51006;SDS011;37034;47.886;-3.904;2023-12-20T11:15:19;20.73;;;3.03;;
51006;SDS011;37034;47.886;-3.904;2023-12-20T11:17:47;22.83;;;3.58;;
51006;SDS011;37034;47.886;-3.904;2023-12-20T11:20:22;24.70;;;3.15;;
51006;SDS011;37034;47.886;-3.904;2023-12-20T11:22:54;22.90;;;3.42;;
51006;SDS011;37034;47.886;-3.904;2023-12-20T11:25:21;19.20;;;3.03;;
51006;SDS011;37034;47.886;-3.904;2023-12-20T11:28:06;24.65;;;4.53;;
51006;SDS011;37034;47.886;-3.904;2023-12-20T11:30:53;23.52;;;4.28;;
51006;SDS011;37034;47.886;-3.904;2023-12-20T11:33:29;23.20;;;3.38;;
51006;SDS011;37034;47.886;-3.904;2023-12-20T11:35:56;19.57;;;2.63;;
51006;SDS011;37034;47.886;-3.904;2023-12-20T11:38:24;17.90;;;2.83;;
51006;SDS011;37034;47.886;-3.904;2023-12-20T11:40:50;16.40;;;2.08;;
51006;SDS011;37034;47.886;-3.904;2023-12-20T11:43:31;11.07;;;1.63;;
51006;SDS011;37034;47.886;-3.904;2023-12-20T11:46:06;19.30;;;1.88;;
51006;SDS011;37034;47.886;-3.904;2023-12-20T11:48:39;18.38;;;1.98;;
51006;SDS011;37034;47.886;-3.904;2023-12-20T11:51:09;12.95;;;1.95;;
51006;SDS011;37034;47.886;-3.904;2023-12-20T11:53:38;10.45;;;1.70;;
51006;SDS011;37034;47.886;-3.904;2023-12-20T11:56:07;9.18;;;1.50;;
51006;SDS011;37034;47.886;-3.904;2023-12-20T11:58:33;11.32;;;1.45;;
51006;SDS011;37034;47.886;-3.904;2023-12-20T12:03:27;10.00;;;1.35;;
51006;SDS011;37034;47.886;-3.904;2023-12-20T12:05:53;17.17;;;3.80;;
51006;SDS011;37034;47.886;-3.904;2023-12-20T12:08:18;17.13;;;3.50;;
51006;SDS011;37034;47.886;-3.904;2023-12-20T12:10:44;15.30;;;2.10;;
51006;SDS011;37034;47.886;-3.904;2023-12-20T12:13:10;11.90;;;2.17;;
51006;SDS011;37034;47.886;-3.904;2023-12-20T12:15:36;14.75;;;1.60;;
51006;SDS011;37034;47.886;-3.904;2023-12-20T12:18:02;14.48;;;1.80;;
51006;SDS011;37034;47.886;-3.904;2023-12-20T12:20:29;15.35;;;1.67;;
51006;SDS011;37034;47.886;-3.904;2023-12-20T12:23:01;14.32;;;2.03;;
51006;SDS011;37034;47.886;-3.904;2023-12-20T12:25:29;12.23;;;2.72;;
51006;SDS011;37034;47.886;-3.904;2023-12-20T12:27:56;11.85;;;1.67;;
51006;SDS011;37034;47.886;-3.904;2023-12-20T12:30:23;17.83;;;5.63;;
51006;SDS011;37034;47.886;-3.904;2023-12-20T12:32:48;27.70;;;8.50;;
51006;SDS011;37034;47.886;-3.904;2023-12-20T12:35:18;19.30;;;2.75;;
51006;SDS011;37034;47.886;-3.904;2023-12-20T12:40:10;16.60;;;2.70;;
51006;SDS011;37034;47.886;-3.904;2023-12-20T12:42:38;23.27;;;4.05;;
51006;SDS011;37034;47.886;-3.904;2023-12-20T12:45:04;16.88;;;2.08;;
51006;SDS011;37034;47.886;-3.904;2023-12-20T12:47:31;22.42;;;3.20;;
51006;SDS011;37034;47.886;-3.904;2023-12-20T12:49:56;15.32;;;2.53;;
51006;SDS011;37034;47.886;-3.904;2023-12-20T12:52:22;19.77;;;3.00;;
51006;SDS011;37034;47.886;-3.904;2023-12-20T12:54:48;18.30;;;2.30;;
51006;SDS011;37034;47.886;-3.904;2023-12-20T12:57:14;22.73;;;3.25;;
51006;SDS011;37034;47.886;-3.904;2023-12-20T12:59:41;23.15;;;2.67;;
51006;SDS011;37034;47.886;-3.904;2023-12-20T13:02:09;18.40;;;3.13;;
51006;SDS011;37034;47.886;-3.904;2023-12-20T13:04:34;22.40;;;2.87;;
51006;SDS011;37034;47.886;-3.904;2023-12-20T13:07:01;13.13;;;2.10;;
51006;SDS011;37034;47.886;-3.904;2023-12-20T13:09:30;19.42;;;2.97;;
51006;SDS011;37034;47.886;-3.904;2023-12-20T13:11:58;15.85;;;2.35;;
51006;SDS011;37034;47.886;-3.904;2023-12-20T13:14:24;12.45;;;1.77;;
51006;SDS011;37034;47.886;-3.904;2023-12-20T13:16:49;7.03;;;1.10;;
51006;SDS011;37034;47.886;-3.904;2023-12-20T13:19:15;9.18;;;1.33;;
51006;SDS011;37034;47.886;-3.904;2023-12-20T13:21:41;15.23;;;2.53;;
51006;SDS011;37034;47.886;-3.904;2023-12-20T13:24:06;13.80;;;1.90;;
51006;SDS011;37034;47.886;-3.904;2023-12-20T13:26:32;14.80;;;2.50;;
51006;SDS011;37034;47.886;-3.904;2023-12-20T13:28:58;8.07;;;1.93;;
51006;SDS011;37034;47.886;-3.904;2023-12-20T13:31:24;12.95;;;3.05;;
51006;SDS011;37034;47.886;-3.904;2023-12-20T13:33:50;16.20;;;3.10;;
51006;SDS011;37034;47.886;-3.904;2023-12-20T13:36:17;15.45;;;4.60;;
51006;SDS011;37034;47.886;-3.904;2023-12-20T13:38:43;11.00;;;1.80;;
51006;SDS011;37034;47.886;-3.904;2023-12-20T13:41:08;13.50;;;1.97;;
51006;SDS011;37034;47.886;-3.904;2023-12-20T13:43:34;14.60;;;2.30;;
51006;SDS011;37034;47.886;-3.904;2023-12-20T13:46:00;12.75;;;2.22;;
51006;SDS011;37034;47.886;-3.904;2023-12-20T13:48:26;12.63;;;2.38;;
51006;SDS011;37034;47.886;-3.904;2023-12-20T13:50:51;12.60;;;1.60;;
51006;SDS011;37034;47.886;-3.904;2023-12-20T13:53:17;9.93;;;1.92;;
51006;SDS011;37034;47.886;-3.904;2023-12-20T13:58:09;9.60;;;1.33;;
51006;SDS011;37034;47.886;-3.904;2023-12-20T14:00:35;9.43;;;1.60;;
51006;SDS011;37034;47.886;-3.904;2023-12-20T14:03:01;12.60;;;2.22;;
51006;SDS011;37034;47.886;-3.904;2023-12-20T14:05:28;10.40;;;2.10;;
51006;SDS011;37034;47.886;-3.904;2023-12-20T14:07:54;19.25;;;2.55;;
51006;SDS011;37034;47.886;-3.904;2023-12-20T14:10:22;13.02;;;2.42;;
51006;SDS011;37034;47.886;-3.904;2023-12-20T14:12:48;15.82;;;1.65;;
51006;SDS011;37034;47.886;-3.904;2023-12-20T14:15:14;8.90;;;1.30;;
51006;SDS011;37034;47.886;-3.904;2023-12-20T14:17:40;14.90;;;2.00;;
51006;SDS011;37034;47.886;-3.904;2023-12-20T14:20:09;11.15;;;1.70;;
51006;SDS011;37034;47.886;-3.904;2023-12-20T14:22:37;11.50;;;1.42;;
51006;SDS011;37034;47.886;-3.904;2023-12-20T14:25:03;7.63;;;2.13;;
51006;SDS011;37034;47.886;-3.904;2023-12-20T14:27:39;8.68;;;1.83;;
51006;SDS011;37034;47.886;-3.904;2023-12-20T14:30:13;15.18;;;2.53;;
51006;SDS011;37034;47.886;-3.904;2023-12-20T14:32:39;12.03;;;1.93;;
51006;SDS011;37034;47.886;-3.904;2023-12-20T14:35:05;8.03;;;1.57;;
51006;SDS011;37034;47.886;-3.904;2023-12-20T14:39:57;12.20;;;1.88;;
51006;SDS011;37034;47.886;-3.904;2023-12-20T14:42:23;6.83;;;1.17;;